Time;durP1;ratioP1;P1;durP2;ratioP2;P2;SDS_P1;SDS_P2;PMS_P1;PMS_P2;Temp;Humidity;BMP_temperature;BMP_pressure;BME280_temperature;BME280_humidity;BME280_pressure;Samples;Min_cycle;Max_cycle;Signal;HPM_P1;HPM_P2
2022/07/01 00:00:26;;;;;;;;;;;14.20;99.90;;;;;;5071083;28;20284;-77
2022/07/01 00:02:51;;;;;;;;;;;14.00;99.90;;;;;;5070798;28;19909;-77
2022/07/01 00:05:17;;;;;;;;;;;14.00;99.90;;;;;;5070879;28;19916;-77
2022/07/01 00:07:42;;;;;;;;;;;13.70;99.90;;;;;;5071431;28;20319;-77
2022/07/01 00:10:08;;;;;;;;;;;13.70;99.90;;;;;;5071067;28;19913;-77
2022/07/01 00:12:33;;;;;;;;;;;13.60;99.90;;;;;;5065137;28;19912;-77
2022/07/01 00:14:59;;;;;;;;;;;13.70;99.90;;;;;;5079451;28;19958;-77
2022/07/01 00:17:24;;;;;;;;;;;13.70;99.90;;;;;;5089826;28;19912;-77
2022/07/01 00:19:50;;;;;;;;;;;13.60;99.90;;;;;;5073924;28;19924;-77
2022/07/01 00:22:15;;;;;;;;;;;13.40;99.90;;;;;;5070582;28;20376;-77
2022/07/01 00:24:41;;;;;;;;;;;13.10;99.90;;;;;;5070331;28;19920;-77
2022/07/01 00:27:07;;;;;;;;;;;13.00;99.90;;;;;;5070793;28;19920;-77
2022/07/01 00:29:33;;;;;;;;;;;12.80;99.90;;;;;;5069695;28;19916;-77
2022/07/01 00:31:59;;;;;;;;;;;12.90;99.90;;;;;;5070419;28;19909;-77
2022/07/01 00:34:24;;;;;;;;;;;12.70;99.90;;;;;;5069083;28;20369;-77
2022/07/01 00:36:50;;;;;;;;;;;12.70;99.90;;;;;;5073190;28;19988;-77
2022/07/01 00:39:16;;;;;;;;;;;12.50;99.90;;;;;;5073833;28;19908;-77
2022/07/01 00:41:41;;;;;;;;;;;12.60;99.90;;;;;;5074434;28;19912;-77
2022/07/01 00:44:15;;;;;;;;;;;12.50;99.90;;;;;;5072412;28;19932;-78
2022/07/01 00:46:40;;;;;;;;;;;12.60;99.90;;;;;;5074616;28;19909;-78
2022/07/01 00:49:06;;;;;;;;;;;12.90;99.90;;;;;;5074157;28;19909;-78
2022/07/01 00:51:32;;;;;;;;;;;12.80;99.90;;;;;;5074035;28;20075;-78
2022/07/01 00:53:58;;;;;;;;;;;12.80;99.90;;;;;;5072169;28;19960;-78
2022/07/01 00:56:24;;;;;;;;;;;12.80;99.90;;;;;;5073347;28;19920;-78
2022/07/01 00:58:49;;;;;;;;;;;12.70;99.90;;;;;;5074569;28;19908;-78
2022/07/01 01:01:15;;;;;;;;;;;12.80;99.90;;;;;;5074053;28;19909;-78
2022/07/01 01:03:41;;;;;;;;;;;12.90;99.90;;;;;;5072626;28;19908;-78
2022/07/01 01:06:06;;;;;;;;;;;12.90;99.90;;;;;;5073356;28;19944;-78
2022/07/01 01:08:32;;;;;;;;;;;12.80;99.90;;;;;;5074103;28;19909;-78
2022/07/01 01:10:57;;;;;;;;;;;12.90;99.90;;;;;;5075733;28;19919;-78
2022/07/01 01:13:23;;;;;;;;;;;13.00;99.90;;;;;;5069567;28;20414;-79
2022/07/01 01:15:48;;;;;;;;;;;13.10;99.90;;;;;;5075085;28;19916;-78
2022/07/01 01:18:14;;;;;;;;;;;13.00;99.90;;;;;;5074226;28;19912;-78
2022/07/01 01:20:40;;;;;;;;;;;13.00;99.90;;;;;;5074904;28;19908;-78
2022/07/01 01:23:05;;;;;;;;;;;13.00;99.90;;;;;;5073842;28;20232;-78
2022/07/01 01:25:31;;;;;;;;;;;13.10;99.90;;;;;;5074961;28;19913;-78
2022/07/01 01:27:57;;;;;;;;;;;13.10;99.90;;;;;;5074358;28;19948;-78
2022/07/01 01:30:22;;;;;;;;;;;13.20;99.90;;;;;;5074302;28;20328;-78
2022/07/01 01:32:49;;;;;;;;;;;12.90;99.90;;;;;;5073775;28;19962;-78
2022/07/01 01:35:15;;;;;;;;;;;13.00;99.90;;;;;;5073286;28;19908;-78
2022/07/01 01:37:40;;;;;;;;;;;13.00;99.90;;;;;;5073786;28;19953;-78
2022/07/01 01:40:06;;;;;;;;;;;12.90;99.90;;;;;;5074279;28;19909;-79
2022/07/01 01:42:32;;;;;;;;;;;12.80;99.90;;;;;;5073426;28;20383;-78
2022/07/01 01:44:58;;;;;;;;;;;12.80;99.90;;;;;;5072925;28;19915;-78
2022/07/01 01:47:23;;;;;;;;;;;13.00;99.90;;;;;;5071824;28;19912;-78
2022/07/01 01:49:49;;;;;;;;;;;13.00;99.90;;;;;;5073536;28;19913;-78
2022/07/01 01:52:14;;;;;;;;;;;13.00;99.90;;;;;;5073351;28;20332;-78
2022/07/01 01:54:40;;;;;;;;;;;12.90;99.90;;;;;;5071786;28;19930;-78
2022/07/01 01:57:05;;;;;;;;;;;12.80;99.90;;;;;;5072556;28;19913;-78
2022/07/01 01:59:31;;;;;;;;;;;12.80;99.90;;;;;;5073327;28;19908;-78
2022/07/01 02:01:57;;;;;;;;;;;12.80;99.90;;;;;;5072579;28;19991;-79
2022/07/01 02:04:25;;;;;;;;;;;12.80;99.90;;;;;;5073053;28;19908;-78
2022/07/01 02:06:51;;;;;;;;;;;12.70;99.90;;;;;;5074223;28;19995;-78
2022/07/01 02:09:17;;;;;;;;;;;12.80;99.90;;;;;;5073396;28;20605;-78
2022/07/01 02:11:42;;;;;;;;;;;12.70;99.90;;;;;;5072802;28;20598;-78
2022/07/01 02:14:08;;;;;;;;;;;12.70;99.90;;;;;;5073088;28;19951;-77
2022/07/01 02:16:33;;;;;;;;;;;12.60;99.90;;;;;;5077660;28;19913;-77
2022/07/01 02:18:59;;;;;;;;;;;12.60;99.90;;;;;;5071812;28;19909;-77
2022/07/01 02:21:24;;;;;;;;;;;12.50;99.90;;;;;;5072972;28;19970;-77
2022/07/01 02:23:51;;;;;;;;;;;12.50;99.90;;;;;;5071305;28;19943;-77
2022/07/01 02:26:17;;;;;;;;;;;12.50;99.90;;;;;;5064244;28;19966;-77
2022/07/01 02:28:42;;;;;;;;;;;12.50;99.90;;;;;;5065105;28;19913;-77
2022/07/01 02:31:08;;;;;;;;;;;12.50;99.90;;;;;;5070990;28;19966;-77
2022/07/01 02:33:33;;;;;;;;;;;12.40;99.90;;;;;;5070004;28;20003;-77
2022/07/01 02:35:59;;;;;;;;;;;12.50;99.90;;;;;;5073387;28;19908;-77
2022/07/01 02:38:24;;;;;;;;;;;12.50;99.90;;;;;;5072480;28;19916;-79
2022/07/01 02:40:50;;;;;;;;;;;12.50;99.90;;;;;;5073384;28;20333;-77
2022/07/01 02:43:16;;;;;;;;;;;12.60;99.90;;;;;;5067011;28;19909;-77
2022/07/01 02:45:41;;;;;;;;;;;12.50;99.90;;;;;;5071005;28;19912;-77
2022/07/01 02:48:07;;;;;;;;;;;12.40;99.90;;;;;;5072628;28;19909;-77
2022/07/01 02:50:32;;;;;;;;;;;12.50;99.90;;;;;;5073595;28;19913;-77
2022/07/01 02:52:58;;;;;;;;;;;12.40;99.90;;;;;;5073285;28;19908;-77
2022/07/01 02:55:24;;;;;;;;;;;12.50;99.90;;;;;;5071603;28;19948;-77
2022/07/01 02:57:51;;;;;;;;;;;12.50;99.90;;;;;;5072846;28;19911;-77
2022/07/01 03:00:17;;;;;;;;;;;12.50;99.90;;;;;;5073411;28;19916;-77
2022/07/01 03:02:42;;;;;;;;;;;12.50;99.90;;;;;;5072499;28;19909;-77
2022/07/01 03:05:08;;;;;;;;;;;12.50;99.90;;;;;;5071584;28;20278;-77
2022/07/01 03:07:37;;;;;;;;;;;12.50;99.90;;;;;;5073265;28;19923;-77
2022/07/01 03:10:03;;;;;;;;;;;12.50;99.90;;;;;;5071428;28;19912;-77
2022/07/01 03:12:29;;;;;;;;;;;12.50;99.90;;;;;;5071864;28;20411;-77
2022/07/01 03:14:56;;;;;;;;;;;12.50;99.90;;;;;;5072262;28;19908;-77
2022/07/01 03:17:22;;;;;;;;;;;12.60;99.90;;;;;;5072232;28;19915;-77
2022/07/01 03:19:48;;;;;;;;;;;12.60;99.90;;;;;;5071946;28;19916;-77
2022/07/01 03:22:13;;;;;;;;;;;12.60;99.90;;;;;;5070897;28;19913;-77
2022/07/01 03:24:39;;;;;;;;;;;12.60;99.90;;;;;;5072252;28;19916;-78
2022/07/01 03:27:04;;;;;;;;;;;12.50;99.90;;;;;;5071289;28;19908;-78
2022/07/01 03:29:30;;;;;;;;;;;12.60;99.90;;;;;;5072489;28;19908;-78
2022/07/01 03:31:55;;;;;;;;;;;12.50;99.90;;;;;;5072909;28;20289;-78
2022/07/01 03:34:21;;;;;;;;;;;12.60;99.90;;;;;;5072747;28;19909;-78
2022/07/01 03:36:47;;;;;;;;;;;12.60;99.90;;;;;;5072566;28;19909;-78
2022/07/01 03:39:12;;;;;;;;;;;12.60;99.90;;;;;;5072147;28;20218;-78
2022/07/01 03:41:38;;;;;;;;;;;12.70;99.90;;;;;;5071550;28;19908;-77
2022/07/01 03:44:03;;;;;;;;;;;12.60;99.90;;;;;;5067459;28;19942;-77
2022/07/01 03:46:31;;;;;;;;;;;12.70;99.90;;;;;;5070988;28;19908;-77
2022/07/01 03:48:57;;;;;;;;;;;12.50;99.90;;;;;;5069804;28;20324;-77
2022/07/01 03:51:23;;;;;;;;;;;12.50;99.90;;;;;;5070581;28;19967;-77
2022/07/01 03:56:32;;;;;;;;;;;12.50;99.90;;;;;;5067457;28;19931;-77
2022/07/01 03:58:58;;;;;;;;;;;12.50;99.90;;;;;;5070443;28;20373;-78
2022/07/01 04:01:23;;;;;;;;;;;12.60;99.90;;;;;;5071344;28;19931;-78
2022/07/01 04:03:49;;;;;;;;;;;12.60;99.90;;;;;;5069966;28;19938;-78
2022/07/01 04:06:15;;;;;;;;;;;12.60;99.90;;;;;;5071771;28;20045;-78
2022/07/01 04:08:40;;;;;;;;;;;12.60;99.90;;;;;;5071430;28;20412;-78
2022/07/01 04:11:08;;;;;;;;;;;12.70;99.90;;;;;;5076067;28;19912;-78
2022/07/01 04:13:34;;;;;;;;;;;12.70;99.90;;;;;;5075119;28;20112;-78
2022/07/01 04:16:00;;;;;;;;;;;12.70;99.90;;;;;;5074584;28;19915;-78
2022/07/01 04:18:26;;;;;;;;;;;12.80;99.90;;;;;;5069828;28;19916;-78
2022/07/01 04:23:36;;;;;;;;;;;12.80;99.90;;;;;;5074799;28;20388;-78
2022/07/01 04:26:02;;;;;;;;;;;12.80;99.90;;;;;;5074740;28;19909;-77
2022/07/01 04:28:27;;;;;;;;;;;12.70;99.90;;;;;;5074670;28;20262;-78
2022/07/01 04:30:53;;;;;;;;;;;12.70;99.90;;;;;;5074621;28;19939;-78
2022/07/01 04:33:18;;;;;;;;;;;12.60;99.90;;;;;;5073775;28;19951;-77
2022/07/01 04:35:43;;;;;;;;;;;12.60;99.90;;;;;;5074556;28;19908;-77
2022/07/01 04:38:09;;;;;;;;;;;12.50;99.90;;;;;;5085775;28;19931;-77
2022/07/01 04:40:35;;;;;;;;;;;12.50;99.90;;;;;;5079603;28;19962;-77
2022/07/01 04:43:00;;;;;;;;;;;12.50;99.90;;;;;;5073784;28;19938;-77
2022/07/01 04:45:26;;;;;;;;;;;12.30;99.90;;;;;;5075332;28;19909;-77
2022/07/01 04:47:51;;;;;;;;;;;12.50;99.90;;;;;;5075154;28;19916;-77
2022/07/01 04:50:17;;;;;;;;;;;12.60;99.90;;;;;;5076481;28;19919;-76
2022/07/01 04:52:42;;;;;;;;;;;12.60;99.90;;;;;;5078756;28;19936;-76
2022/07/01 04:55:08;;;;;;;;;;;12.70;99.90;;;;;;5079811;28;19908;-76
2022/07/01 04:57:33;;;;;;;;;;;12.60;99.90;;;;;;5079626;28;19992;-76
2022/07/01 04:59:59;;;;;;;;;;;12.60;99.90;;;;;;5079767;28;19916;-76
2022/07/01 05:02:24;;;;;;;;;;;12.70;99.90;;;;;;5077166;28;19908;-77
2022/07/01 05:04:50;;;;;;;;;;;12.60;99.90;;;;;;5078493;28;20346;-77
2022/07/01 05:07:28;;;;;;;;;;;12.70;99.90;;;;;;5078883;28;19908;-78
2022/07/01 05:09:54;;;;;;;;;;;12.70;99.90;;;;;;5074690;28;19912;-76
2022/07/01 05:12:19;;;;;;;;;;;12.60;99.90;;;;;;5072777;28;19967;-77
2022/07/01 05:14:45;;;;;;;;;;;12.60;99.90;;;;;;5076705;28;19946;-76
2022/07/01 05:17:10;;;;;;;;;;;12.60;99.90;;;;;;5074785;28;19961;-77
2022/07/01 05:22:20;;;;;;;;;;;12.70;99.90;;;;;;5066667;28;20323;-77
2022/07/01 05:24:46;;;;;;;;;;;12.70;99.90;;;;;;5071864;28;19917;-77
2022/07/01 05:27:11;;;;;;;;;;;12.80;99.90;;;;;;5074806;28;19913;-77
2022/07/01 05:29:36;;;;;;;;;;;12.80;99.90;;;;;;5074877;28;20369;-77
2022/07/01 05:32:02;;;;;;;;;;;12.70;99.90;;;;;;5074918;28;19916;-77
2022/07/01 05:34:28;;;;;;;;;;;12.60;99.90;;;;;;5063079;28;19909;-77
2022/07/01 05:36:53;;;;;;;;;;;12.80;99.90;;;;;;5073217;28;19913;-78
2022/07/01 05:39:19;;;;;;;;;;;12.80;99.90;;;;;;5073886;28;19909;-77
2022/07/01 05:41:45;;;;;;;;;;;12.70;99.90;;;;;;5074887;28;20012;-77
2022/07/01 05:44:11;;;;;;;;;;;12.80;99.90;;;;;;5072459;28;20277;-77
2022/07/01 05:46:36;;;;;;;;;;;12.60;99.90;;;;;;5086531;28;19915;-77
2022/07/01 05:49:02;;;;;;;;;;;12.50;99.90;;;;;;5074550;28;19956;-77
2022/07/01 05:51:27;;;;;;;;;;;12.60;99.90;;;;;;5074948;28;19912;-77
2022/07/01 05:53:53;;;;;;;;;;;12.60;99.90;;;;;;5074688;28;19919;-77
2022/07/01 05:56:19;;;;;;;;;;;12.70;99.90;;;;;;5073324;28;19915;-77
2022/07/01 05:58:44;;;;;;;;;;;12.70;99.90;;;;;;5075427;28;19908;-77
2022/07/01 06:01:10;;;;;;;;;;;12.70;99.90;;;;;;5074482;28;19966;-77
2022/07/01 06:03:35;;;;;;;;;;;12.60;99.90;;;;;;5072651;28;19913;-77
2022/07/01 06:06:01;;;;;;;;;;;12.50;99.90;;;;;;5073336;28;19916;-77
2022/07/01 06:08:28;;;;;;;;;;;12.50;99.90;;;;;;5073313;28;19916;-77
2022/07/01 06:10:54;;;;;;;;;;;12.60;99.90;;;;;;5073330;28;20007;-77
2022/07/01 06:13:19;;;;;;;;;;;12.50;99.90;;;;;;5071140;28;19951;-77
2022/07/01 06:15:45;;;;;;;;;;;12.40;99.90;;;;;;5072981;28;19962;-77
2022/07/01 06:18:10;;;;;;;;;;;12.40;99.90;;;;;;5072568;28;20378;-77
2022/07/01 06:20:36;;;;;;;;;;;12.50;99.90;;;;;;5072891;28;19909;-77
2022/07/01 06:23:02;;;;;;;;;;;12.50;99.90;;;;;;5072721;28;19917;-77
2022/07/01 06:25:27;;;;;;;;;;;12.60;99.90;;;;;;5072028;28;19952;-77
2022/07/01 06:27:53;;;;;;;;;;;12.80;99.90;;;;;;5072585;28;20377;-77
2022/07/01 06:30:18;;;;;;;;;;;12.80;99.90;;;;;;5073322;28;20007;-77
2022/07/01 06:32:44;;;;;;;;;;;12.80;99.90;;;;;;5071132;28;19909;-77
2022/07/01 06:35:10;;;;;;;;;;;12.80;99.90;;;;;;5052193;28;19909;-76
2022/07/01 06:37:35;;;;;;;;;;;12.90;99.90;;;;;;5068142;28;19951;-77
2022/07/01 06:40:05;;;;;;;;;;;12.60;99.90;;;;;;5084434;28;19915;-77
2022/07/01 06:42:30;;;;;;;;;;;12.80;99.90;;;;;;5072846;28;20003;-77
2022/07/01 06:44:56;;;;;;;;;;;12.70;99.90;;;;;;5063738;28;20001;-77
2022/07/01 06:47:21;;;;;;;;;;;12.70;99.90;;;;;;5078893;28;19915;-77
2022/07/01 06:49:47;;;;;;;;;;;12.70;99.90;;;;;;5077190;28;19959;-77
2022/07/01 06:52:13;;;;;;;;;;;12.70;99.90;;;;;;5073201;28;19908;-77
2022/07/01 06:54:39;;;;;;;;;;;12.90;99.90;;;;;;5072341;28;19909;-77
2022/07/01 06:57:05;;;;;;;;;;;12.80;99.90;;;;;;5071627;28;20312;-77
2022/07/01 06:59:31;;;;;;;;;;;12.70;99.90;;;;;;5072589;28;19920;-77
2022/07/01 07:01:56;;;;;;;;;;;12.60;99.90;;;;;;5071579;28;20346;-77
2022/07/01 07:04:22;;;;;;;;;;;12.80;99.90;;;;;;5062140;28;19909;-77
2022/07/01 07:06:47;;;;;;;;;;;13.10;99.90;;;;;;5067906;28;19940;-77
2022/07/01 07:09:13;;;;;;;;;;;13.00;99.90;;;;;;5062980;28;19915;-77
2022/07/01 07:11:38;;;;;;;;;;;13.10;99.90;;;;;;5084519;28;20000;-77
2022/07/01 07:14:04;;;;;;;;;;;13.10;99.90;;;;;;5074536;28;19927;-77
2022/07/01 07:16:29;;;;;;;;;;;13.30;99.90;;;;;;5076880;28;19908;-78
2022/07/01 07:18:55;;;;;;;;;;;13.50;99.90;;;;;;5072047;28;19909;-78
2022/07/01 07:21:21;;;;;;;;;;;13.40;99.90;;;;;;5073143;28;20388;-77
2022/07/01 07:23:46;;;;;;;;;;;13.40;99.90;;;;;;5072194;28;20011;-77
2022/07/01 07:26:12;;;;;;;;;;;13.20;99.90;;;;;;5072250;28;19909;-77
2022/07/01 07:28:37;;;;;;;;;;;13.10;99.90;;;;;;5070402;28;19908;-77
2022/07/01 07:31:03;;;;;;;;;;;13.10;99.90;;;;;;5071411;28;20011;-77
2022/07/01 07:33:28;;;;;;;;;;;13.20;99.90;;;;;;5071304;28;19912;-77
2022/07/01 07:35:54;;;;;;;;;;;13.10;99.90;;;;;;5071604;28;19912;-77
2022/07/01 07:38:20;;;;;;;;;;;13.00;99.90;;;;;;5071547;28;19944;-77
2022/07/01 07:40:46;;;;;;;;;;;12.80;99.90;;;;;;5070189;28;20387;-77
2022/07/01 07:43:11;;;;;;;;;;;12.90;99.90;;;;;;5069956;28;19962;-77
2022/07/01 07:45:37;;;;;;;;;;;12.90;99.90;;;;;;5080133;28;19908;-77
2022/07/01 07:48:03;;;;;;;;;;;12.80;99.90;;;;;;5085401;28;19959;-77
2022/07/01 07:50:29;;;;;;;;;;;12.90;99.90;;;;;;5071546;28;19912;-77
2022/07/01 07:52:55;;;;;;;;;;;13.10;99.90;;;;;;5071426;28;19916;-77
2022/07/01 07:55:20;;;;;;;;;;;13.10;99.90;;;;;;5071429;28;19909;-77
2022/07/01 07:57:45;;;;;;;;;;;13.10;99.90;;;;;;5070518;28;20013;-77
2022/07/01 08:00:12;;;;;;;;;;;13.20;99.90;;;;;;5070778;28;19909;-77
2022/07/01 08:02:38;;;;;;;;;;;13.10;99.90;;;;;;5066856;28;19915;-77
2022/07/01 08:05:03;;;;;;;;;;;12.90;99.90;;;;;;5063736;28;20363;-77
2022/07/01 08:07:29;;;;;;;;;;;13.00;99.90;;;;;;5090566;28;19958;-77
2022/07/01 08:09:55;;;;;;;;;;;13.20;99.90;;;;;;5086960;28;19913;-78
2022/07/01 08:12:21;;;;;;;;;;;13.30;99.90;;;;;;5068951;28;19930;-78
2022/07/01 08:14:47;;;;;;;;;;;13.10;99.90;;;;;;5068954;28;19909;-78
2022/07/01 08:17:12;;;;;;;;;;;13.30;99.90;;;;;;5072236;28;19915;-78
2022/07/01 08:19:38;;;;;;;;;;;13.60;99.90;;;;;;5072272;28;19994;-78
2022/07/01 08:22:03;;;;;;;;;;;13.60;99.90;;;;;;5071702;28;19920;-78
2022/07/01 08:24:29;;;;;;;;;;;13.70;99.90;;;;;;5069666;28;19966;-78
2022/07/01 08:26:54;;;;;;;;;;;13.70;99.90;;;;;;5071321;28;20008;-77
2022/07/01 08:29:20;;;;;;;;;;;13.50;99.90;;;;;;5071499;28;20396;-78
2022/07/01 08:31:45;;;;;;;;;;;13.50;99.90;;;;;;5071411;28;19920;-78
2022/07/01 08:34:11;;;;;;;;;;;13.50;99.90;;;;;;5071182;28;19908;-78
2022/07/01 08:36:36;;;;;;;;;;;13.60;99.90;;;;;;5071094;28;19916;-77
2022/07/01 08:39:03;;;;;;;;;;;13.50;99.90;;;;;;5071244;28;20293;-77
2022/07/01 08:41:28;;;;;;;;;;;13.50;99.90;;;;;;5071150;28;20467;-77
2022/07/01 08:43:54;;;;;;;;;;;13.40;99.90;;;;;;5071735;28;19917;-77
2022/07/01 08:46:21;;;;;;;;;;;13.40;99.90;;;;;;5070792;28;19908;-77
2022/07/01 08:48:46;;;;;;;;;;;13.50;99.90;;;;;;5070666;28;19915;-77
2022/07/01 08:51:12;;;;;;;;;;;13.50;99.90;;;;;;5070403;28;20115;-77
2022/07/01 08:53:38;;;;;;;;;;;13.50;99.90;;;;;;5069894;28;19908;-77
2022/07/01 08:58:48;;;;;;;;;;;13.50;99.90;;;;;;5074072;28;19935;-77
2022/07/01 09:01:15;;;;;;;;;;;13.20;99.90;;;;;;5073889;28;19919;-77
2022/07/01 09:03:41;;;;;;;;;;;13.20;99.90;;;;;;5071634;28;19915;-77
2022/07/01 09:06:13;;;;;;;;;;;13.10;99.90;;;;;;5093215;28;19909;-77
2022/07/01 09:08:38;;;;;;;;;;;13.10;99.90;;;;;;5078013;28;19908;-77
2022/07/01 09:11:13;;;;;;;;;;;13.20;99.90;;;;;;5073698;28;19924;-77
2022/07/01 09:13:39;;;;;;;;;;;13.20;99.90;;;;;;5073040;28;19916;-77
2022/07/01 09:16:16;;;;;;;;;;;13.20;99.90;;;;;;5080178;28;19908;-77
2022/07/01 09:19:01;;;;;;;;;;;13.10;99.90;;;;;;5073382;28;20432;-77
2022/07/01 09:21:30;;;;;;;;;;;13.20;99.90;;;;;;5066864;28;20298;-77
2022/07/01 09:23:56;;;;;;;;;;;13.20;99.90;;;;;;5073045;28;19920;-77
2022/07/01 09:26:22;;;;;;;;;;;12.90;99.90;;;;;;5073497;28;19913;-77
2022/07/01 09:28:57;;;;;;;;;;;12.90;99.90;;;;;;5073524;28;20395;-77
2022/07/01 09:31:45;;;;;;;;;;;13.00;99.90;;;;;;5072995;28;19967;-77
2022/07/01 09:34:12;;;;;;;;;;;13.20;99.90;;;;;;5072765;28;19908;-77
2022/07/01 09:36:39;;;;;;;;;;;13.30;99.90;;;;;;5072498;28;20013;-77
2022/07/01 09:39:04;;;;;;;;;;;13.40;99.90;;;;;;5073438;28;20361;-77
2022/07/01 09:41:40;;;;;;;;;;;13.30;99.90;;;;;;5072628;28;19936;-77
2022/07/01 09:44:09;;;;;;;;;;;13.40;99.90;;;;;;5075948;28;19915;-77
2022/07/01 09:46:35;;;;;;;;;;;13.30;99.90;;;;;;5077788;28;19916;-78
2022/07/01 09:49:00;;;;;;;;;;;13.70;99.90;;;;;;5071952;28;19930;-78
2022/07/01 09:51:26;;;;;;;;;;;14.10;99.90;;;;;;5072588;28;19958;-78
2022/07/01 09:53:52;;;;;;;;;;;14.40;99.90;;;;;;5072108;28;19913;-78
2022/07/01 09:56:19;;;;;;;;;;;14.30;99.90;;;;;;5073342;28;19959;-78
2022/07/01 09:58:45;;;;;;;;;;;14.40;99.90;;;;;;5073604;28;19939;-80
2022/07/01 10:01:11;;;;;;;;;;;14.70;99.90;;;;;;5067102;28;20449;-78
2022/07/01 10:03:38;;;;;;;;;;;15.00;99.90;;;;;;5069029;28;19996;-79
2022/07/01 10:06:13;;;;;;;;;;;15.00;99.90;;;;;;5072354;28;19930;-80
2022/07/01 10:08:58;;;;;;;;;;;15.10;99.90;;;;;;5073179;28;19909;-79
2022/07/01 10:11:42;;;;;;;;;;;15.40;99.90;;;;;;5068735;28;19912;-79
2022/07/01 10:14:09;;;;;;;;;;;16.10;99.90;;;;;;5075907;28;19920;-79
2022/07/01 10:16:36;;;;;;;;;;;15.80;99.90;;;;;;5074018;28;19924;-79
2022/07/01 10:19:23;;;;;;;;;;;15.20;99.90;;;;;;5074533;28;19915;-79
2022/07/01 10:21:51;;;;;;;;;;;15.20;99.90;;;;;;5059219;28;20365;-80
2022/07/01 10:24:17;;;;;;;;;;;15.40;99.90;;;;;;5074535;28;20344;-79
2022/07/01 10:26:43;;;;;;;;;;;15.00;99.90;;;;;;5076027;28;19909;-79
2022/07/01 10:29:28;;;;;;;;;;;14.70;99.90;;;;;;5072879;28;19954;-80
2022/07/01 10:31:54;;;;;;;;;;;14.50;99.90;;;;;;5066604;28;19912;-80
2022/07/01 10:34:20;;;;;;;;;;;14.70;99.90;;;;;;5071998;28;19914;-80
2022/07/01 10:36:59;;;;;;;;;;;14.90;99.90;;;;;;5072731;28;19909;-79
2022/07/01 10:39:27;;;;;;;;;;;14.70;99.90;;;;;;5064849;28;19915;-79
2022/07/01 10:41:52;;;;;;;;;;;14.90;99.90;;;;;;5071271;28;19909;-79
2022/07/01 10:44:19;;;;;;;;;;;14.90;99.90;;;;;;5067890;28;19961;-80
2022/07/01 10:46:44;;;;;;;;;;;15.10;99.90;;;;;;5071593;28;19917;-80
2022/07/01 10:49:13;;;;;;;;;;;15.50;99.90;;;;;;5072077;28;19995;-80
2022/07/01 10:51:45;;;;;;;;;;;15.70;99.90;;;;;;5071073;28;19912;-78
2022/07/01 10:54:10;;;;;;;;;;;16.10;99.90;;;;;;5071009;28;20316;-79
2022/07/01 10:56:40;;;;;;;;;;;16.70;99.90;;;;;;5069945;28;19920;-80
2022/07/01 10:59:06;;;;;;;;;;;16.80;99.90;;;;;;5070740;28;19919;-79
2022/07/01 11:01:31;;;;;;;;;;;16.20;99.90;;;;;;5069988;28;20340;-79
2022/07/01 11:03:57;;;;;;;;;;;16.20;99.90;;;;;;5066764;28;19970;-79
2022/07/01 11:06:24;;;;;;;;;;;16.70;99.90;;;;;;5071373;28;19920;-79
2022/07/01 11:08:50;;;;;;;;;;;17.00;99.90;;;;;;5072321;28;20054;-79
2022/07/01 11:11:15;;;;;;;;;;;16.70;99.90;;;;;;5057032;28;20010;-79
2022/07/01 11:13:41;;;;;;;;;;;16.80;99.90;;;;;;5072380;28;20003;-79
2022/07/01 11:16:08;;;;;;;;;;;16.40;99.90;;;;;;5071340;28;19916;-79
2022/07/01 11:18:33;;;;;;;;;;;16.40;99.90;;;;;;5067250;28;19913;-79
2022/07/01 11:21:06;;;;;;;;;;;16.40;99.90;;;;;;5072350;28;19957;-80
2022/07/01 11:23:32;;;;;;;;;;;16.30;99.90;;;;;;5070056;28;19916;-79
2022/07/01 11:25:57;;;;;;;;;;;15.70;99.90;;;;;;5071754;28;19909;-79
2022/07/01 11:28:23;;;;;;;;;;;16.00;99.90;;;;;;5071480;28;20384;-79
2022/07/01 11:30:57;;;;;;;;;;;16.50;99.90;;;;;;5073835;28;20341;-80
2022/07/01 11:33:22;;;;;;;;;;;16.90;99.90;;;;;;5072522;28;19908;-79
2022/07/01 11:41:21;;;;;;;;;;;17.30;99.90;;;;;;5074204;28;19915;-80
2022/07/01 11:43:46;;;;;;;;;;;17.50;99.90;;;;;;5081656;28;19908;-79
2022/07/01 11:46:12;;;;;;;;;;;17.30;99.90;;;;;;5087650;28;19931;-79
2022/07/01 11:48:39;;;;;;;;;;;17.30;99.90;;;;;;5072031;28;20380;-79
2022/07/01 11:51:09;;;;;;;;;;;16.80;99.90;;;;;;5070809;28;20057;-79
2022/07/01 11:53:35;;;;;;;;;;;16.40;99.90;;;;;;5071354;28;19912;-79
2022/07/01 11:56:01;;;;;;;;;;;16.50;99.90;;;;;;5070676;28;19915;-79
2022/07/01 11:58:45;;;;;;;;;;;16.50;99.90;;;;;;5070450;28;19916;-79
2022/07/01 12:01:10;;;;;;;;;;;17.30;99.90;;;;;;5069970;28;19915;-79
2022/07/01 12:03:37;;;;;;;;;;;18.30;99.90;;;;;;5061788;28;19917;-79
2022/07/01 12:06:03;;;;;;;;;;;18.50;99.90;;;;;;5071030;28;19955;-80
2022/07/01 12:08:29;;;;;;;;;;;19.00;99.90;;;;;;5070997;28;19909;-80
2022/07/01 12:10:57;;;;;;;;;;;19.60;99.90;;;;;;5069876;28;19923;-80
2022/07/01 12:13:23;;;;;;;;;;;19.30;99.90;;;;;;5069839;28;19908;-79
2022/07/01 12:15:49;;;;;;;;;;;18.20;99.90;;;;;;5072704;28;19912;-79
2022/07/01 12:18:15;;;;;;;;;;;17.90;99.90;;;;;;5069297;28;19909;-79
2022/07/01 12:20:47;;;;;;;;;;;17.60;99.90;;;;;;5069756;28;19908;-80
2022/07/01 12:23:13;;;;;;;;;;;17.20;99.90;;;;;;5063829;28;19952;-80
2022/07/01 12:25:39;;;;;;;;;;;17.10;99.90;;;;;;5070919;28;19908;-80
2022/07/01 12:28:04;;;;;;;;;;;17.00;99.90;;;;;;5070781;28;19913;-80
2022/07/01 12:30:33;;;;;;;;;;;17.20;99.90;;;;;;5071160;28;19917;-80
2022/07/01 12:33:07;;;;;;;;;;;16.80;99.90;;;;;;5073750;28;19915;-80
2022/07/01 12:35:37;;;;;;;;;;;16.80;99.90;;;;;;5075064;28;20361;-80
2022/07/01 12:38:07;;;;;;;;;;;17.20;99.90;;;;;;5074029;28;19919;-80
2022/07/01 12:40:33;;;;;;;;;;;17.30;99.90;;;;;;5067067;28;20384;-80
2022/07/01 12:43:06;;;;;;;;;;;17.50;99.90;;;;;;5074724;28;19909;-80
2022/07/01 12:45:32;;;;;;;;;;;17.80;99.90;;;;;;5075243;28;20005;-78
2022/07/01 12:47:57;;;;;;;;;;;17.80;99.90;;;;;;5075570;28;20285;-79
2022/07/01 12:50:24;;;;;;;;;;;18.20;99.90;;;;;;5074291;28;19948;-79
2022/07/01 12:52:57;;;;;;;;;;;18.50;99.90;;;;;;5074746;28;19929;-79
2022/07/01 12:55:22;;;;;;;;;;;18.80;99.90;;;;;;5074935;28;19955;-79
2022/07/01 12:57:48;;;;;;;;;;;19.00;99.90;;;;;;5077196;28;19908;-80
2022/07/01 13:00:15;;;;;;;;;;;19.60;99.90;;;;;;5077250;28;19909;-80
2022/07/01 13:02:41;;;;;;;;;;;19.40;99.90;;;;;;5076731;28;19924;-81
2022/07/01 13:05:06;;;;;;;;;;;19.00;99.90;;;;;;5069411;28;19995;-80
2022/07/01 13:07:32;;;;;;;;;;;18.60;99.90;;;;;;5076632;28;20429;-80
2022/07/01 13:09:57;;;;;;;;;;;19.30;99.90;;;;;;5075326;28;19908;-81
2022/07/01 13:12:23;;;;;;;;;;;18.80;99.90;;;;;;5074613;28;19917;-84
2022/07/01 13:14:48;;;;;;;;;;;19.40;99.90;;;;;;5073730;28;20294;-80
2022/07/01 13:17:14;;;;;;;;;;;19.40;99.90;;;;;;5075399;28;19913;-80
2022/07/01 13:19:39;;;;;;;;;;;19.70;99.90;;;;;;5074794;28;19909;-81
2022/07/01 13:22:05;;;;;;;;;;;19.90;99.90;;;;;;5074974;28;20419;-79
2022/07/01 13:24:30;;;;;;;;;;;20.20;99.90;;;;;;5074372;28;19999;-80
2022/07/01 13:26:56;;;;;;;;;;;21.30;99.90;;;;;;5075224;28;20273;-80
2022/07/01 13:29:22;;;;;;;;;;;24.40;99.90;;;;;;5086749;28;19970;-80
2022/07/01 13:31:47;;;;;;;;;;;23.80;99.90;;;;;;5073452;28;20297;-82
2022/07/01 13:34:13;;;;;;;;;;;21.90;99.90;;;;;;5074103;28;19909;-80
2022/07/01 13:36:38;;;;;;;;;;;20.60;99.90;;;;;;5073190;28;19959;-81
2022/07/01 13:39:04;;;;;;;;;;;22.90;99.90;;;;;;5073532;28;20061;-82
2022/07/01 13:41:29;;;;;;;;;;;24.90;96.20;;;;;;5070585;28;19916;-81
2022/07/01 13:43:55;;;;;;;;;;;25.70;98.30;;;;;;5067156;28;20230;-79
2022/07/01 13:46:20;;;;;;;;;;;26.00;94.30;;;;;;5071512;28;20282;-78
2022/07/01 13:48:46;;;;;;;;;;;23.00;93.00;;;;;;5071469;28;20002;-81
2022/07/01 13:51:11;;;;;;;;;;;21.70;96.00;;;;;;5072907;28;19913;-81
2022/07/01 13:53:37;;;;;;;;;;;23.50;97.70;;;;;;5072547;28;19962;-81
2022/07/01 13:56:02;;;;;;;;;;;26.20;86.60;;;;;;5073488;28;20342;-81
2022/07/01 13:58:28;;;;;;;;;;;28.00;84.50;;;;;;5071894;28;20281;-83
2022/07/01 14:00:54;;;;;;;;;;;26.50;78.30;;;;;;5068342;28;20004;-83
2022/07/01 14:03:19;;;;;;;;;;;26.90;86.60;;;;;;5068034;28;19908;-81
2022/07/01 14:05:45;;;;;;;;;;;26.90;85.10;;;;;;5071044;28;19955;-82
2022/07/01 14:08:10;;;;;;;;;;;26.00;86.80;;;;;;5073030;28;20325;-82
2022/07/01 14:10:37;;;;;;;;;;;26.20;83.20;;;;;;5072598;28;19919;-81
2022/07/01 14:13:03;;;;;;;;;;;22.20;94.30;;;;;;5072550;28;19999;-81
2022/07/01 14:15:29;;;;;;;;;;;22.40;93.30;;;;;;5072107;28;19908;-81
2022/07/01 14:17:54;;;;;;;;;;;22.50;94.10;;;;;;5072996;28;19912;-82
2022/07/01 14:20:20;;;;;;;;;;;25.30;90.20;;;;;;5072524;28;20262;-81
2022/07/01 14:22:45;;;;;;;;;;;27.10;86.40;;;;;;5071930;28;19969;-82
2022/07/01 14:25:11;;;;;;;;;;;26.40;85.10;;;;;;5072441;28;19916;-82
2022/07/01 14:27:36;;;;;;;;;;;27.60;86.70;;;;;;5058315;28;20320;-82